createdAt,value
2022-09-12T00:02:09.344Z,100.00
2022-09-12T00:05:12.123Z,100.00
2022-09-12T00:08:15.244Z,100.00
2022-09-12T00:11:18.251Z,100.00
2022-09-12T00:14:20.864Z,100.00
2022-09-12T00:17:23.603Z,100.00
2022-09-12T00:20:26.169Z,100.00
2022-09-12T00:23:28.965Z,100.00
2022-09-12T00:26:31.741Z,100.00
2022-09-12T00:29:34.706Z,100.00
2022-09-12T00:32:37.343Z,100.00
2022-09-12T00:35:48.923Z,100.00
2022-09-12T00:38:51.628Z,100.00
2022-09-12T00:41:54.366Z,100.00
2022-09-12T00:44:56.746Z,100.00
2022-09-12T00:48:03.642Z,100.00
2022-09-12T00:51:06.450Z,100.00
2022-09-12T00:54:14.831Z,100.00
2022-09-12T00:57:18.347Z,100.00
2022-09-12T01:00:24.148Z,100.00
2022-09-12T01:03:27.068Z,100.00
2022-09-12T01:06:37.141Z,100.00
2022-09-12T01:09:41.750Z,100.00
2022-09-12T01:12:44.777Z,100.00
2022-09-12T01:15:47.340Z,100.00
2022-09-12T01:19:15.019Z,100.00
2022-09-12T01:22:55.223Z,100.00
2022-09-12T01:26:19.419Z,100.00
2022-09-12T01:29:40.338Z,100.00
2022-09-12T01:33:16.943Z,100.00
2022-09-12T01:36:34.512Z,100.00
2022-09-12T01:40:16.620Z,100.00
2022-09-12T01:43:26.756Z,100.00
2022-09-12T01:46:53.744Z,100.00
2022-09-12T01:50:08.336Z,100.00
2022-09-12T01:53:22.174Z,100.00
2022-09-12T01:56:28.300Z,100.00
2022-09-12T01:59:41.047Z,100.00
2022-09-12T02:02:51.968Z,100.00
2022-09-12T02:06:19.939Z,100.00
2022-09-12T02:09:38.028Z,100.00
2022-09-12T02:12:49.027Z,100.00
2022-09-12T02:15:58.379Z,100.00
2022-09-12T02:19:09.702Z,100.00
2022-09-12T02:22:17.720Z,100.00
2022-09-12T02:25:22.196Z,100.00
2022-09-12T02:28:30.075Z,100.00
2022-09-12T02:31:52.867Z,100.00
2022-09-12T02:35:09.307Z,100.00
2022-09-12T02:38:26.721Z,100.00
2022-09-12T02:41:29.232Z,100.00
2022-09-12T02:44:33.746Z,100.00
2022-09-12T02:47:49.044Z,100.00
2022-09-12T02:50:52.047Z,100.00
2022-09-12T02:53:54.694Z,100.00
2022-09-12T02:56:57.503Z,100.00
2022-09-12T03:00:01.663Z,100.00
2022-09-12T03:03:07.149Z,100.00
2022-09-12T03:06:18.430Z,100.00
2022-09-12T03:09:36.759Z,100.00
2022-09-12T03:13:00.985Z,100.00
2022-09-12T03:16:31.272Z,100.00
2022-09-12T03:19:45.712Z,100.00
2022-09-12T03:22:59.595Z,100.00
2022-09-12T03:26:21.267Z,100.00
2022-09-12T03:29:26.197Z,100.00
2022-09-12T03:32:44.849Z,100.00
2022-09-12T03:35:49.177Z,100.00
2022-09-12T03:38:52.204Z,100.00
2022-09-12T03:41:56.057Z,100.00
2022-09-12T03:44:58.617Z,100.00
2022-09-12T03:48:01.541Z,100.00
2022-09-12T03:51:06.084Z,100.00
2022-09-12T03:54:09.864Z,100.00
2022-09-12T03:57:12.615Z,100.00
2022-09-12T04:00:19.734Z,100.00
2022-09-12T04:03:22.858Z,100.00
2022-09-12T04:06:25.471Z,100.00
2022-09-12T04:09:28.198Z,100.00
2022-09-12T04:12:30.819Z,100.00
2022-09-12T04:15:33.693Z,100.00
2022-09-12T04:18:36.417Z,100.00
2022-09-12T04:21:40.053Z,100.00
2022-09-12T04:24:42.553Z,100.00
2022-09-12T04:27:45.310Z,100.00
2022-09-12T04:30:47.991Z,100.00
2022-09-12T04:33:56.303Z,100.00
2022-09-12T04:36:58.911Z,100.00
2022-09-12T04:40:01.887Z,100.00
2022-09-12T04:43:09.216Z,100.00
2022-09-12T04:46:16.986Z,100.00
2022-09-12T04:49:19.565Z,100.00
2022-09-12T04:52:22.448Z,100.00
2022-09-12T04:55:25.389Z,100.00
2022-09-12T04:58:28.120Z,100.00
2022-09-12T05:01:30.833Z,100.00
2022-09-12T05:04:33.716Z,100.00
2022-09-12T05:07:36.696Z,100.00
2022-09-12T05:10:39.459Z,100.00
2022-09-12T05:13:42.567Z,100.00
2022-09-12T05:16:49.192Z,100.00
2022-09-12T05:19:52.670Z,100.00
2022-09-12T05:22:55.844Z,100.00
2022-09-12T05:25:59.563Z,97.98
2022-09-12T05:29:04.340Z,96.13
2022-09-12T05:32:06.891Z,93.24
2022-09-12T05:35:09.649Z,91.77
2022-09-12T05:38:12.125Z,91.42
2022-09-12T05:41:25.123Z,91.84
2022-09-12T05:44:28.251Z,91.23
2022-09-12T05:47:31.400Z,91.68
2022-09-12T05:50:33.922Z,91.18
2022-09-12T05:53:37.977Z,90.51
2022-09-12T05:56:42.632Z,90.62
2022-09-12T05:59:45.409Z,91.85
2022-09-12T06:02:53.801Z,91.83
2022-09-12T06:05:56.611Z,91.69
2022-09-12T06:09:01.265Z,90.60
2022-09-12T06:12:04.237Z,90.64
2022-09-12T06:15:08.037Z,89.20
2022-09-12T06:18:11.010Z,88.96
2022-09-12T06:21:13.990Z,88.92
2022-09-12T06:24:18.224Z,87.55
2022-09-12T06:27:20.747Z,87.08
2022-09-12T06:30:25.489Z,87.40
2022-09-12T06:33:28.152Z,87.29
2022-09-12T06:36:34.092Z,85.85
2022-09-12T06:39:38.420Z,85.98
2022-09-12T06:42:41.223Z,85.29
2022-09-12T06:45:51.240Z,84.50
2022-09-12T06:48:56.623Z,84.11
2022-09-12T06:51:59.156Z,83.93
2022-09-12T06:55:01.939Z,82.51
2022-09-12T06:58:05.553Z,82.96
2022-09-12T07:01:14.215Z,81.03
2022-09-12T07:04:16.763Z,80.95
2022-09-12T07:07:19.565Z,80.79
2022-09-12T07:10:22.696Z,80.92
2022-09-12T07:13:25.610Z,80.19
2022-09-12T07:16:28.847Z,78.52
2022-09-12T07:19:31.645Z,78.16
2022-09-12T07:22:34.113Z,76.59
2022-09-12T07:25:37.712Z,76.28
2022-09-12T07:28:41.055Z,75.28
2022-09-12T07:31:44.546Z,73.73
2022-09-12T07:34:47.469Z,74.15
2022-09-12T07:37:50.319Z,72.63
2022-09-12T07:40:52.827Z,73.63
2022-09-12T07:43:57.786Z,74.80
2022-09-12T07:47:01.142Z,75.29
2022-09-12T07:50:04.169Z,76.13
2022-09-12T07:53:07.035Z,75.03
2022-09-12T07:56:11.295Z,74.76
2022-09-12T07:59:25.493Z,74.40
2022-09-12T08:02:41.498Z,72.68
2022-09-12T08:05:44.377Z,72.39
2022-09-12T08:08:48.446Z,70.96
2022-09-12T08:11:51.232Z,70.20
2022-09-12T08:14:53.790Z,69.43
2022-09-12T08:17:56.678Z,67.62
2022-09-12T08:21:00.839Z,68.35
2022-09-12T08:24:05.955Z,68.95
2022-09-12T08:27:08.548Z,71.20
2022-09-12T08:30:14.992Z,71.29
2022-09-12T08:33:17.997Z,71.58
2022-09-12T08:36:24.018Z,72.05
2022-09-12T08:39:26.467Z,71.05
2022-09-12T08:42:42.870Z,70.01
2022-09-12T08:45:58.336Z,69.52
2022-09-12T08:49:04.282Z,67.27
2022-09-12T08:52:15.604Z,66.33
2022-09-12T08:55:33.845Z,65.66
2022-09-12T08:58:40.870Z,64.69
2022-09-12T09:01:45.538Z,64.24
2022-09-12T09:04:56.443Z,63.28
2022-09-12T09:08:08.801Z,62.58
2022-09-12T09:11:21.326Z,62.90
2022-09-12T09:14:51.880Z,61.04
2022-09-12T09:18:11.106Z,61.63
2022-09-12T09:21:33.566Z,61.29
2022-09-12T09:24:48.946Z,60.05
2022-09-12T09:28:22.733Z,60.72
2022-09-12T09:31:28.914Z,59.13
2022-09-12T09:34:32.068Z,56.59
2022-09-12T09:37:58.882Z,56.37
2022-09-12T09:41:14.078Z,56.22
2022-09-12T09:44:17.584Z,56.21
2022-09-12T09:47:20.412Z,57.41
2022-09-12T09:50:24.052Z,55.40
2022-09-12T09:54:14.721Z,56.59
2022-09-12T09:57:35.510Z,52.82
2022-09-12T10:00:39.173Z,54.67
2022-09-12T10:03:56.047Z,55.84
2022-09-12T10:07:01.271Z,56.32
2022-09-12T10:10:23.244Z,56.06
2022-09-12T10:13:37.605Z,54.26
2022-09-12T10:16:53.285Z,53.18
2022-09-12T10:20:17.549Z,53.45
2022-09-12T10:23:37.062Z,54.87
2022-09-12T10:26:41.567Z,54.22
2022-09-12T10:29:54.642Z,53.87
2022-09-12T10:33:06.521Z,53.72
2022-09-12T10:36:09.468Z,54.00
2022-09-12T10:39:18.670Z,53.41
2022-09-12T10:42:46.759Z,53.27
2022-09-12T10:45:49.164Z,52.61
2022-09-12T10:49:14.681Z,53.40
2022-09-12T10:52:27.372Z,52.75
2022-09-12T10:55:35.496Z,52.87
2022-09-12T10:58:48.825Z,52.88
2022-09-12T11:01:58.495Z,52.81
2022-09-12T11:05:36.827Z,53.40
2022-09-12T11:09:10.047Z,51.96
2022-09-12T11:12:24.294Z,51.69
2022-09-12T11:15:55.516Z,51.41
2022-09-12T11:19:19.967Z,52.08
2022-09-12T11:22:31.719Z,53.58
2022-09-12T11:25:46.226Z,52.59
2022-09-12T11:28:55.843Z,52.52
2022-09-12T11:32:23.543Z,51.91
2022-09-12T11:35:29.732Z,50.88
2022-09-12T11:38:51.161Z,48.97
2022-09-12T11:42:00.501Z,48.14
2022-09-12T11:45:13.873Z,48.56
2022-09-12T11:48:46.269Z,49.73
2022-09-12T11:52:18.535Z,51.85
2022-09-12T11:55:29.840Z,52.80
2022-09-12T11:58:32.702Z,54.68
2022-09-12T12:01:44.996Z,55.05
2022-09-12T12:05:20.938Z,55.01
2022-09-12T12:08:27.605Z,56.13
2022-09-12T12:11:34.457Z,55.30
2022-09-12T12:14:46.836Z,54.71
2022-09-12T12:18:04.015Z,52.27
2022-09-12T12:21:32.123Z,51.56
2022-09-12T12:24:35.240Z,50.93
2022-09-12T12:28:06.333Z,50.76
2022-09-12T12:31:11.364Z,51.79
2022-09-12T12:34:35.207Z,50.00
2022-09-12T12:37:43.939Z,49.81
2022-09-12T12:40:46.973Z,48.40
2022-09-12T12:43:56.235Z,49.22
2022-09-12T12:47:20.218Z,49.93
2022-09-12T12:50:29.315Z,50.36
2022-09-12T12:53:31.852Z,49.12
2022-09-12T12:56:41.989Z,48.55
2022-09-12T13:00:08.897Z,49.53
2022-09-12T13:03:41.119Z,49.84
2022-09-12T13:06:46.516Z,50.32
2022-09-12T13:09:52.959Z,49.08
2022-09-12T13:13:03.432Z,49.00
2022-09-12T13:16:06.474Z,47.52
2022-09-12T13:19:19.245Z,47.99
2022-09-12T13:22:24.646Z,48.40
2022-09-12T13:25:32.877Z,48.24
2022-09-12T13:28:36.035Z,47.36
2022-09-12T13:31:39.376Z,49.12
2022-09-12T13:35:23.529Z,48.05
2022-09-12T13:39:03.169Z,47.67
2022-09-12T13:42:33.339Z,48.44
2022-09-12T13:45:39.527Z,49.71
2022-09-12T13:48:43.620Z,49.61
2022-09-12T13:51:46.200Z,49.60
2022-09-12T13:54:53.848Z,48.95
2022-09-12T13:58:05.113Z,47.62
2022-09-12T14:01:10.865Z,46.29
2022-09-12T14:04:36.692Z,43.27
2022-09-12T14:07:51.163Z,42.68
2022-09-12T14:10:54.775Z,41.56
2022-09-12T14:13:58.296Z,41.00
2022-09-12T14:17:01.138Z,41.54
2022-09-12T14:20:14.704Z,40.90
2022-09-12T14:23:29.652Z,41.34
2022-09-12T14:26:39.015Z,40.67
2022-09-12T14:29:44.080Z,40.57
2022-09-12T14:33:06.216Z,39.75
2022-09-12T14:36:15.734Z,39.87
2022-09-12T14:39:21.881Z,40.42
2022-09-12T14:42:30.353Z,40.13
2022-09-12T14:45:33.319Z,39.78
2022-09-12T14:48:43.260Z,39.34
2022-09-12T14:51:51.742Z,37.79
2022-09-12T14:55:21.617Z,37.55
2022-09-12T14:58:27.380Z,36.94
2022-09-12T15:01:30.191Z,36.80
2022-09-12T15:04:42.205Z,37.60
2022-09-12T15:07:53.925Z,37.20
2022-09-12T15:10:57.441Z,36.82
2022-09-12T15:14:12.881Z,36.21
2022-09-12T15:17:15.365Z,35.67
2022-09-12T15:20:18.186Z,34.98
2022-09-12T15:23:31.119Z,34.69
2022-09-12T15:26:33.910Z,32.61
2022-09-12T15:29:36.423Z,32.19
2022-09-12T15:32:41.985Z,30.33
2022-09-12T15:35:44.968Z,28.25
2022-09-12T15:38:48.860Z,27.20
2022-09-12T15:41:51.672Z,26.90
2022-09-12T15:44:54.787Z,25.22
2022-09-12T15:47:59.899Z,25.11
2022-09-12T15:51:04.801Z,24.50
2022-09-12T15:54:07.284Z,23.56
2022-09-12T15:57:10.228Z,22.83
2022-09-12T16:00:14.398Z,22.96
2022-09-12T16:03:27.580Z,23.76
2022-09-12T16:06:36.264Z,23.01
2022-09-12T16:09:40.172Z,24.26
2022-09-12T16:12:44.624Z,24.18
2022-09-12T16:15:47.385Z,23.77
2022-09-12T16:18:49.962Z,24.34
2022-09-12T16:21:52.867Z,25.82
2022-09-12T16:24:55.360Z,26.59
2022-09-12T16:27:58.353Z,28.87
2022-09-12T16:31:05.795Z,31.90
2022-09-12T16:34:08.684Z,34.63
2022-09-12T16:37:11.262Z,37.49
2022-09-12T16:40:15.845Z,39.53
2022-09-12T16:43:18.435Z,41.54
2022-09-12T16:46:24.168Z,42.67
2022-09-12T16:49:26.770Z,44.24
2022-09-12T16:52:30.262Z,44.34
2022-09-12T16:55:32.681Z,45.91
2022-09-12T16:58:41.577Z,47.60
2022-09-12T17:01:45.292Z,47.88
2022-09-12T17:04:48.855Z,47.74
2022-09-12T17:07:51.967Z,49.62
2022-09-12T17:11:05.943Z,50.59
2022-09-12T17:14:09.034Z,50.93
2022-09-12T17:17:12.054Z,51.48
2022-09-12T17:20:14.698Z,50.77
2022-09-12T17:23:17.908Z,50.98
2022-09-12T17:26:20.856Z,51.43
2022-09-12T17:29:23.643Z,52.95
2022-09-12T17:32:26.033Z,51.61
2022-09-12T17:35:29.110Z,52.61
2022-09-12T17:38:34.153Z,52.83
2022-09-12T17:41:37.694Z,53.22
2022-09-12T17:44:40.498Z,53.76
2022-09-12T17:47:43.335Z,54.76
2022-09-12T17:50:46.578Z,55.20
2022-09-12T17:53:49.368Z,54.99
2022-09-12T17:56:52.287Z,54.93
2022-09-12T17:59:54.968Z,53.64
2022-09-12T18:02:58.017Z,54.55
2022-09-12T18:06:01.052Z,53.88
2022-09-12T18:09:06.394Z,54.74
2022-09-12T18:12:10.100Z,54.01
2022-09-12T18:15:13.181Z,53.87
2022-09-12T18:18:16.126Z,54.34
2022-09-12T18:21:19.822Z,53.79
2022-09-12T18:24:23.133Z,53.85
2022-09-12T18:27:25.675Z,53.83
2022-09-12T18:30:30.096Z,54.42
2022-09-12T18:33:34.015Z,54.44
2022-09-12T18:36:37.088Z,55.52
2022-09-12T18:39:39.675Z,55.55
2022-09-12T18:42:42.438Z,56.28
2022-09-12T18:45:45.035Z,56.57
2022-09-12T18:48:47.879Z,56.62
2022-09-12T18:51:50.479Z,57.03
2022-09-12T18:54:53.335Z,56.92
2022-09-12T18:57:55.856Z,57.91
2022-09-12T19:00:59.214Z,58.77
2022-09-12T19:04:04.740Z,58.54
2022-09-12T19:07:07.814Z,58.91
2022-09-12T19:10:10.321Z,60.35
2022-09-12T19:13:13.114Z,60.78
2022-09-12T19:16:34.675Z,60.93
2022-09-12T19:19:40.469Z,61.67
2022-09-12T19:22:43.852Z,60.19
2022-09-12T19:25:56.887Z,59.83
2022-09-12T19:29:02.488Z,61.52
2022-09-12T19:32:05.474Z,61.50
2022-09-12T19:35:08.509Z,62.01
2022-09-12T19:38:12.223Z,63.26
2022-09-12T19:41:15.334Z,62.67
2022-09-12T19:44:19.354Z,62.13
2022-09-12T19:47:22.069Z,62.29
2022-09-12T19:50:28.225Z,61.88
2022-09-12T19:53:31.434Z,60.89
2022-09-12T19:56:34.261Z,60.89
2022-09-12T19:59:40.290Z,61.35
2022-09-12T20:02:43.221Z,59.26
2022-09-12T20:05:46.023Z,60.03
2022-09-12T20:08:49.176Z,60.20
2022-09-12T20:11:52.004Z,61.16
2022-09-12T20:14:54.566Z,62.94
2022-09-12T20:17:57.966Z,62.83
2022-09-12T20:21:11.670Z,60.02
2022-09-12T20:24:16.027Z,60.53
2022-09-12T20:27:18.635Z,62.07
2022-09-12T20:30:21.437Z,61.85
2022-09-12T20:33:23.891Z,62.97
2022-09-12T20:36:26.962Z,63.59
2022-09-12T20:39:29.462Z,63.34
2022-09-12T20:42:32.197Z,62.89
2022-09-12T20:45:41.432Z,66.14
2022-09-12T20:48:44.190Z,64.92
2022-09-12T20:51:48.341Z,63.42
2022-09-12T20:54:51.188Z,64.69
2022-09-12T20:57:53.659Z,63.87
2022-09-12T21:00:56.501Z,62.80
2022-09-12T21:04:00.749Z,63.46
2022-09-12T21:07:03.595Z,63.21
2022-09-12T21:10:06.364Z,62.98
2022-09-12T21:13:10.933Z,63.46
2022-09-12T21:16:16.755Z,64.74
2022-09-12T21:19:19.632Z,65.55
2022-09-12T21:22:22.197Z,66.88
2022-09-12T21:25:25.179Z,65.83
2022-09-12T21:28:28.509Z,68.87
2022-09-12T21:31:31.303Z,68.42
2022-09-12T21:34:33.928Z,68.74
2022-09-12T21:37:37.158Z,69.02
2022-09-12T21:40:39.662Z,66.97
2022-09-12T21:43:43.579Z,67.29
2022-09-12T21:46:46.187Z,66.92
2022-09-12T21:49:48.981Z,67.01
2022-09-12T21:52:51.706Z,68.03
2022-09-12T21:55:55.038Z,68.49
2022-09-12T21:58:57.566Z,69.19
2022-09-12T22:02:00.423Z,70.06
2022-09-12T22:05:04.169Z,70.18
2022-09-12T22:08:08.149Z,70.57
2022-09-12T22:11:10.898Z,69.83
2022-09-12T22:14:13.392Z,69.81
2022-09-12T22:17:16.283Z,70.78
2022-09-12T22:20:19.266Z,71.49
2022-09-12T22:23:40.565Z,70.98
2022-09-12T22:26:45.161Z,70.98
2022-09-12T22:29:50.571Z,74.22
2022-09-12T22:32:53.156Z,73.81
2022-09-12T22:35:55.915Z,72.89
2022-09-12T22:39:00.291Z,75.67
2022-09-12T22:42:03.834Z,75.36
2022-09-12T22:45:07.621Z,75.22
2022-09-12T22:48:10.426Z,74.64
2022-09-12T22:51:13.698Z,75.29
2022-09-12T22:54:16.463Z,76.89
2022-09-12T22:57:19.301Z,78.23
2022-09-12T23:00:23.587Z,79.33
2022-09-12T23:03:26.188Z,80.44
2022-09-12T23:06:29.513Z,81.87
2022-09-12T23:09:35.247Z,82.33
2022-09-12T23:12:38.309Z,81.86
2022-09-12T23:15:41.315Z,84.42
2022-09-12T23:18:44.379Z,84.73
2022-09-12T23:21:46.814Z,84.16
2022-09-12T23:24:49.548Z,86.13
2022-09-12T23:27:52.161Z,87.68
2022-09-12T23:30:55.975Z,88.91
2022-09-12T23:34:02.019Z,89.72
2022-09-12T23:37:04.747Z,90.02
2022-09-12T23:40:09.149Z,90.20
2022-09-12T23:43:11.942Z,91.29
2022-09-12T23:46:15.959Z,91.29
2022-09-12T23:49:18.785Z,90.03
2022-09-12T23:52:21.296Z,90.96
2022-09-12T23:55:24.555Z,92.07
2022-09-12T23:58:27.171Z,92.59
